createdAt,value
2018-12-10T00:00:27.280Z,7.50
2018-12-10T00:03:01.976Z,7.50
2018-12-10T00:05:31.647Z,7.40
2018-12-10T00:08:01.300Z,7.30
2018-12-10T00:10:30.880Z,7.30
2018-12-10T00:13:00.367Z,7.20
2018-12-10T00:15:29.809Z,7.20
2018-12-10T00:17:59.275Z,7.20
2018-12-10T00:20:28.891Z,7.20
2018-12-10T00:22:58.502Z,7.10
2018-12-10T00:25:28.018Z,7.00
2018-12-10T00:27:57.474Z,7.00
2018-12-10T00:30:26.976Z,7.00
2018-12-10T00:32:56.433Z,7.00
2018-12-10T00:35:25.889Z,6.90
2018-12-10T00:37:55.410Z,6.90
2018-12-10T00:40:24.883Z,7.00
2018-12-10T00:42:54.326Z,7.00
2018-12-10T00:45:23.884Z,6.90
2018-12-10T00:47:53.316Z,6.90
2018-12-10T00:50:22.763Z,6.90
2018-12-10T00:52:52.562Z,6.90
2018-12-10T00:55:22.223Z,6.70
2018-12-10T00:57:52.018Z,6.70
2018-12-10T01:00:21.531Z,6.80
2018-12-10T01:02:51.138Z,6.80
2018-12-10T01:05:20.605Z,6.80
2018-12-10T01:07:50.165Z,6.90
2018-12-10T01:10:19.849Z,7.10
2018-12-10T01:12:49.452Z,7.20
2018-12-10T01:15:18.909Z,7.20
2018-12-10T01:17:48.355Z,7.20
2018-12-10T01:20:17.912Z,7.40
2018-12-10T01:22:47.379Z,7.40
2018-12-10T01:25:17.022Z,7.40
2018-12-10T01:27:46.578Z,7.30
2018-12-10T01:30:16.348Z,7.30
2018-12-10T01:32:45.850Z,7.10
2018-12-10T01:35:15.312Z,7.10
2018-12-10T01:37:44.895Z,7.10
2018-12-10T01:40:14.331Z,7.00
2018-12-10T01:42:43.897Z,6.90
2018-12-10T01:45:13.378Z,7.00
2018-12-10T01:47:42.854Z,7.00
2018-12-10T01:50:12.415Z,7.00
2018-12-10T01:52:41.893Z,7.10
2018-12-10T01:55:11.365Z,6.90
2018-12-10T01:57:40.850Z,6.90
2018-12-10T02:00:10.636Z,6.70
2018-12-10T02:02:40.343Z,6.70
2018-12-10T02:05:10.115Z,6.60
2018-12-10T02:07:39.805Z,6.60
2018-12-10T02:10:10.131Z,6.60
2018-12-10T02:12:39.587Z,6.60
2018-12-10T02:15:09.206Z,6.60
2018-12-10T02:17:38.643Z,6.60
2018-12-10T02:20:08.243Z,6.60
2018-12-10T02:22:38.084Z,6.60
2018-12-10T02:25:07.554Z,6.60
2018-12-10T02:27:37.000Z,6.60
2018-12-10T02:30:06.755Z,6.50
2018-12-10T02:32:36.287Z,6.50
2018-12-10T02:35:05.976Z,6.50
2018-12-10T02:37:35.492Z,6.50
2018-12-10T02:40:05.719Z,6.60
2018-12-10T02:42:35.221Z,6.70
2018-12-10T02:45:06.119Z,6.40
2018-12-10T02:47:35.555Z,6.40
2018-12-10T02:50:05.985Z,6.40
2018-12-10T02:52:35.466Z,6.40
2018-12-10T02:55:05.734Z,6.50
2018-12-10T02:57:35.192Z,6.50
2018-12-10T03:00:05.330Z,6.30
2018-12-10T03:02:34.871Z,6.20
2018-12-10T03:05:04.465Z,6.10
2018-12-10T03:07:33.969Z,6.10
2018-12-10T03:10:03.716Z,6.20
2018-12-10T03:12:33.199Z,6.30
2018-12-10T03:15:02.710Z,6.30
2018-12-10T03:17:32.240Z,6.30
2018-12-10T03:20:01.720Z,6.30
2018-12-10T03:22:31.353Z,6.40
2018-12-10T03:25:00.941Z,6.30
2018-12-10T03:27:30.486Z,6.40
2018-12-10T03:30:00.033Z,6.40
2018-12-10T03:32:29.462Z,6.40
2018-12-10T03:34:58.975Z,6.40
2018-12-10T03:37:28.520Z,6.40
2018-12-10T03:39:58.304Z,6.20
2018-12-10T03:42:27.885Z,6.20
2018-12-10T03:44:57.441Z,6.00
2018-12-10T03:47:27.011Z,6.00
2018-12-10T03:49:56.594Z,5.90
2018-12-10T03:52:26.072Z,5.90
2018-12-10T03:54:55.717Z,5.80
2018-12-10T03:57:25.171Z,5.90
2018-12-10T03:59:54.611Z,5.90
2018-12-10T04:02:24.289Z,6.00
2018-12-10T04:04:53.801Z,6.00
2018-12-10T04:07:23.329Z,6.10
2018-12-10T04:09:52.782Z,6.20
2018-12-10T04:12:22.244Z,6.20
2018-12-10T04:14:51.713Z,6.40
2018-12-10T04:17:21.225Z,6.40
2018-12-10T04:19:50.687Z,6.50
2018-12-10T04:22:20.148Z,6.60
2018-12-10T04:24:49.690Z,6.60
2018-12-10T04:27:19.156Z,6.70
2018-12-10T04:29:48.681Z,6.70
2018-12-10T04:32:18.171Z,6.60
2018-12-10T04:34:47.601Z,6.60
2018-12-10T04:37:17.391Z,6.60
2018-12-10T04:39:46.876Z,6.70
2018-12-10T04:42:16.354Z,6.80
2018-12-10T04:44:45.868Z,6.80
2018-12-10T04:47:15.394Z,6.80
2018-12-10T04:49:44.908Z,6.80
2018-12-10T04:52:14.436Z,6.70
2018-12-10T04:54:43.873Z,6.70
2018-12-10T04:57:13.435Z,6.70
2018-12-10T04:59:42.922Z,6.70
2018-12-10T05:02:12.494Z,6.70
2018-12-10T05:04:42.066Z,6.60
2018-12-10T05:07:11.548Z,6.50
2018-12-10T05:09:41.034Z,6.50
2018-12-10T05:12:10.834Z,6.60
2018-12-10T05:14:40.275Z,6.50
2018-12-10T05:17:09.974Z,6.60
2018-12-10T05:19:39.515Z,6.60
2018-12-10T05:22:09.149Z,6.70
2018-12-10T05:24:38.604Z,6.70
2018-12-10T05:27:08.048Z,6.70
2018-12-10T05:29:37.529Z,6.70
2018-12-10T05:32:07.131Z,6.60
2018-12-10T05:34:39.788Z,6.60
2018-12-10T05:37:09.223Z,6.70
2018-12-10T05:39:38.719Z,6.70
2018-12-10T05:42:08.164Z,6.70
2018-12-10T05:44:37.833Z,6.70
2018-12-10T05:47:07.301Z,6.60
2018-12-10T05:49:36.820Z,6.60
2018-12-10T05:52:06.383Z,6.60
2018-12-10T05:54:35.858Z,6.60
2018-12-10T05:57:05.546Z,6.60
2018-12-10T05:59:35.051Z,6.50
2018-12-10T06:02:04.519Z,6.50
2018-12-10T06:04:34.053Z,6.40
2018-12-10T06:07:03.550Z,6.40
2018-12-10T06:09:33.176Z,6.30
2018-12-10T06:12:03.211Z,6.40
2018-12-10T06:14:32.711Z,6.50
2018-12-10T06:17:02.258Z,6.50
2018-12-10T06:19:31.928Z,6.40
2018-12-10T06:22:01.418Z,6.30
2018-12-10T06:24:30.925Z,6.30
2018-12-10T06:27:00.396Z,6.30
2018-12-10T06:29:29.850Z,6.30
2018-12-10T06:31:59.302Z,6.20
2018-12-10T06:34:28.779Z,6.20
2018-12-10T06:36:58.250Z,6.20
2018-12-10T06:39:27.871Z,6.30
2018-12-10T06:41:57.481Z,6.30
2018-12-10T06:44:27.084Z,6.30
2018-12-10T06:46:56.603Z,6.30
2018-12-10T06:49:26.086Z,6.40
2018-12-10T06:51:55.632Z,6.40
2018-12-10T06:54:25.091Z,6.50
2018-12-10T06:56:54.536Z,6.50
2018-12-10T06:59:23.999Z,6.60
2018-12-10T07:01:54.222Z,6.70
2018-12-10T07:04:23.829Z,6.70
2018-12-10T07:06:53.303Z,6.50
2018-12-10T07:09:22.773Z,6.60
2018-12-10T07:11:52.227Z,6.70
2018-12-10T07:14:21.795Z,6.70
2018-12-10T07:16:51.266Z,6.80
2018-12-10T07:19:20.746Z,6.80
2018-12-10T07:21:50.371Z,6.80
2018-12-10T07:24:19.806Z,6.80
2018-12-10T07:26:49.272Z,6.80
2018-12-10T07:29:18.722Z,6.70
2018-12-10T07:31:48.199Z,6.70
2018-12-10T07:34:17.643Z,6.70
2018-12-10T07:36:47.223Z,6.70
2018-12-10T07:39:16.714Z,6.60
2018-12-10T07:41:46.222Z,6.60
2018-12-10T07:44:15.656Z,6.50
2018-12-10T07:46:45.152Z,6.60
2018-12-10T07:49:15.244Z,6.60
2018-12-10T07:51:44.960Z,6.60
2018-12-10T07:54:14.465Z,6.70
2018-12-10T07:56:43.997Z,6.70
2018-12-10T07:59:13.431Z,6.70
2018-12-10T08:01:43.393Z,6.80
2018-12-10T08:04:13.170Z,6.90
2018-12-10T08:06:42.671Z,6.90
2018-12-10T08:09:12.220Z,6.90
2018-12-10T08:11:41.732Z,6.80
2018-12-10T08:14:11.291Z,6.90
2018-12-10T08:16:40.802Z,7.20
2018-12-10T08:19:10.294Z,7.40
2018-12-10T08:21:39.823Z,7.60
2018-12-10T08:24:09.374Z,7.60
2018-12-10T08:26:38.857Z,7.60
2018-12-10T08:29:08.469Z,7.60
2018-12-10T08:31:37.978Z,7.60
2018-12-10T08:34:07.764Z,7.80
2018-12-10T08:36:37.303Z,8.40
2018-12-10T08:39:08.548Z,8.90
2018-12-10T08:41:37.976Z,8.90
2018-12-10T08:44:08.438Z,9.00
2018-12-10T08:46:37.989Z,10.00
2018-12-10T08:49:07.474Z,11.10
2018-12-10T08:51:36.992Z,12.60
2018-12-10T08:54:12.772Z,13.80
2018-12-10T08:56:42.427Z,13.90
2018-12-10T08:59:11.948Z,14.30
2018-12-10T09:01:41.540Z,13.70
2018-12-10T09:04:11.152Z,13.00
2018-12-10T09:06:40.615Z,12.20
2018-12-10T09:09:10.075Z,11.80
2018-12-10T09:11:39.762Z,11.50
2018-12-10T09:14:09.250Z,11.30
2018-12-10T09:16:38.731Z,11.10
2018-12-10T09:19:08.371Z,11.00
2018-12-10T09:21:38.120Z,11.20
2018-12-10T09:24:07.753Z,11.90
2018-12-10T09:26:37.212Z,12.40
2018-12-10T09:29:06.780Z,12.20
2018-12-10T09:31:36.299Z,11.80
2018-12-10T09:34:05.957Z,11.50
2018-12-10T09:36:35.409Z,11.30
2018-12-10T09:39:07.333Z,11.20
2018-12-10T09:41:36.866Z,11.10
2018-12-10T09:44:06.442Z,10.70
2018-12-10T09:46:35.959Z,10.40
2018-12-10T09:49:05.574Z,10.30
2018-12-10T09:51:35.114Z,10.30
2018-12-10T09:54:04.790Z,10.10
2018-12-10T09:56:34.347Z,9.80
2018-12-10T09:59:06.975Z,9.60
2018-12-10T10:01:36.649Z,9.50
2018-12-10T10:04:06.199Z,9.10
2018-12-10T10:06:35.775Z,9.10
2018-12-10T10:09:07.546Z,9.20
2018-12-10T10:11:37.630Z,9.10
2018-12-10T10:14:07.208Z,9.20
2018-12-10T10:16:36.845Z,9.20
2018-12-10T10:19:06.295Z,9.30
2018-12-10T10:21:35.969Z,9.30
2018-12-10T10:24:05.736Z,9.50
2018-12-10T10:26:35.247Z,9.50
2018-12-10T10:29:04.708Z,9.40
2018-12-10T10:31:34.166Z,9.40
2018-12-10T10:34:03.651Z,10.00
2018-12-10T10:36:33.121Z,11.40
2018-12-10T10:39:03.857Z,13.60
2018-12-10T10:41:33.343Z,15.30
2018-12-10T10:44:02.831Z,16.60
2018-12-10T10:46:32.403Z,17.00
2018-12-10T10:49:02.027Z,16.30
2018-12-10T10:51:31.674Z,15.70
2018-12-10T10:54:01.195Z,14.70
2018-12-10T10:56:30.744Z,13.80
2018-12-10T10:59:00.257Z,13.00
2018-12-10T11:03:18.647Z,11.90
2018-12-10T11:05:48.363Z,11.10
2018-12-10T11:08:18.174Z,10.70
2018-12-10T11:10:48.205Z,10.50
2018-12-10T11:13:17.696Z,10.20
2018-12-10T11:15:47.458Z,9.90
2018-12-10T11:18:17.316Z,9.80
2018-12-10T11:20:46.807Z,9.70
2018-12-10T11:23:16.514Z,9.70
2018-12-10T11:25:46.123Z,9.90
2018-12-10T11:28:15.575Z,10.10
2018-12-10T11:30:45.051Z,10.40
2018-12-10T11:33:14.661Z,10.30
2018-12-10T11:35:44.261Z,10.20
2018-12-10T11:38:13.717Z,10.30
2018-12-10T11:40:43.278Z,10.30
2018-12-10T11:43:12.757Z,10.10
2018-12-10T11:45:42.242Z,10.00
2018-12-10T11:48:11.762Z,9.90
2018-12-10T11:50:41.260Z,10.00
2018-12-10T11:53:10.716Z,10.50
2018-12-10T11:55:40.230Z,11.10
2018-12-10T11:58:14.336Z,11.40
2018-12-10T12:00:44.137Z,11.50
2018-12-10T12:03:13.582Z,11.40
2018-12-10T12:05:43.247Z,11.50
2018-12-10T12:08:12.834Z,11.60
2018-12-10T12:10:42.311Z,11.60
2018-12-10T12:13:12.154Z,11.20
2018-12-10T12:15:41.691Z,11.10
2018-12-10T12:18:11.239Z,11.00
2018-12-10T12:20:40.737Z,10.90
2018-12-10T12:23:10.282Z,10.70
2018-12-10T12:25:39.779Z,10.40
2018-12-10T12:28:09.390Z,10.10
2018-12-10T12:30:39.107Z,9.80
2018-12-10T12:33:08.855Z,9.50
2018-12-10T12:35:38.441Z,9.40
2018-12-10T12:38:08.058Z,9.30
2018-12-10T12:40:37.521Z,9.30
2018-12-10T12:43:15.786Z,9.30
2018-12-10T12:45:38.813Z,9.30
2018-12-10T12:48:08.259Z,9.20
2018-12-10T12:50:37.721Z,9.20
2018-12-10T12:53:07.473Z,9.10
2018-12-10T12:55:41.871Z,9.00
2018-12-10T12:58:11.359Z,8.90
2018-12-10T13:00:42.058Z,8.80
2018-12-10T13:03:12.030Z,8.60
2018-12-10T13:05:41.903Z,8.60
2018-12-10T13:08:14.413Z,8.50
2018-12-10T13:10:44.190Z,8.30
2018-12-10T13:13:13.739Z,8.20
2018-12-10T13:15:43.440Z,8.20
2018-12-10T13:18:12.929Z,8.20
2018-12-10T13:20:42.580Z,8.10
2018-12-10T13:23:12.123Z,7.80
2018-12-10T13:25:41.838Z,7.80
2018-12-10T13:28:11.675Z,7.90
2018-12-10T13:30:41.176Z,8.10
2018-12-10T13:33:10.776Z,7.90
2018-12-10T13:35:40.473Z,8.00
2018-12-10T13:38:12.567Z,7.90
2018-12-10T13:40:41.755Z,8.00
2018-12-10T13:43:11.334Z,8.00
2018-12-10T13:45:41.164Z,8.00
2018-12-10T13:48:11.264Z,7.90
2018-12-10T13:50:40.868Z,7.90
2018-12-10T13:53:10.402Z,7.90
2018-12-10T13:55:39.990Z,7.90
2018-12-10T13:58:10.558Z,7.70
2018-12-10T14:00:40.047Z,7.70
2018-12-10T14:03:09.693Z,7.70
2018-12-10T14:05:39.316Z,7.70
2018-12-10T14:08:08.797Z,7.70
2018-12-10T14:10:44.737Z,7.80
2018-12-10T14:13:14.959Z,7.70
2018-12-10T14:15:44.555Z,7.70
2018-12-10T14:18:14.090Z,7.70
2018-12-10T14:20:43.683Z,7.70
2018-12-10T14:23:13.202Z,7.70
2018-12-10T14:25:42.905Z,7.70
2018-12-10T14:28:12.541Z,7.70
2018-12-10T14:30:43.017Z,7.70
2018-12-10T14:33:12.493Z,7.70
2018-12-10T14:35:42.014Z,7.50
2018-12-10T14:38:11.745Z,7.60
2018-12-10T14:40:41.283Z,7.70
2018-12-10T14:43:10.833Z,7.90
2018-12-10T14:45:44.032Z,8.00
2018-12-10T14:48:13.559Z,8.10
2018-12-10T14:50:43.041Z,8.20
2018-12-10T14:53:12.651Z,8.20
2018-12-10T14:55:42.195Z,8.20
2018-12-10T14:58:11.798Z,8.30
2018-12-10T15:00:41.261Z,8.40
2018-12-10T15:03:10.975Z,8.40
2018-12-10T15:05:40.724Z,8.40
2018-12-10T15:08:10.421Z,8.40
2018-12-10T15:10:39.995Z,8.40
2018-12-10T15:13:09.842Z,8.20
2018-12-10T15:15:39.370Z,8.10
2018-12-10T15:18:08.852Z,8.10
2018-12-10T15:20:38.491Z,7.90
2018-12-10T15:23:08.175Z,7.80
2018-12-10T15:25:37.717Z,7.70
2018-12-10T15:28:07.372Z,7.60
2018-12-10T15:30:37.203Z,7.50
2018-12-10T15:33:06.903Z,7.40
2018-12-10T15:35:36.448Z,7.40
2018-12-10T15:38:06.119Z,7.30
2018-12-10T15:40:35.848Z,7.10
2018-12-10T15:43:05.434Z,7.10
2018-12-10T15:45:34.949Z,7.00
2018-12-10T15:48:04.434Z,6.90
2018-12-10T15:50:33.914Z,6.90
2018-12-10T15:53:03.372Z,6.90
2018-12-10T15:55:32.839Z,6.90
2018-12-10T15:58:02.555Z,6.90
2018-12-10T16:00:32.205Z,6.90
2018-12-10T16:03:02.083Z,6.90
2018-12-10T16:05:31.729Z,6.90
2018-12-10T16:08:01.209Z,6.90
2018-12-10T16:10:31.102Z,6.80
2018-12-10T16:13:00.570Z,6.70
2018-12-10T16:15:30.099Z,6.60
2018-12-10T16:17:59.641Z,6.60
2018-12-10T16:20:29.378Z,6.50
2018-12-10T16:22:59.418Z,6.60
2018-12-10T16:25:28.974Z,6.60
2018-12-10T16:27:58.542Z,6.50
2018-12-10T16:30:28.569Z,6.50
2018-12-10T16:32:58.275Z,6.40
2018-12-10T16:35:35.206Z,6.30
2018-12-10T16:38:05.799Z,6.20
2018-12-10T16:40:35.509Z,6.10
2018-12-10T16:43:04.999Z,6.10
2018-12-10T16:45:34.477Z,6.00
2018-12-10T16:48:04.337Z,5.90
2018-12-10T16:50:34.056Z,5.90
2018-12-10T16:53:03.567Z,5.80
2018-12-10T16:55:34.484Z,5.70
2018-12-10T16:58:03.961Z,5.60
2018-12-10T17:00:33.486Z,5.70
2018-12-10T17:03:03.029Z,5.60
2018-12-10T17:05:35.439Z,5.60
2018-12-10T17:08:05.040Z,5.50
2018-12-10T17:10:34.702Z,5.50
2018-12-10T17:13:04.258Z,5.40
2018-12-10T17:15:33.916Z,5.40
2018-12-10T17:18:03.810Z,5.40
2018-12-10T17:20:33.496Z,5.40
2018-12-10T17:23:03.086Z,5.40
2018-12-10T17:25:32.466Z,5.40
2018-12-10T17:28:01.982Z,5.30
2018-12-10T17:30:31.767Z,5.30
2018-12-10T17:33:01.221Z,5.30
2018-12-10T17:35:30.641Z,5.40
2018-12-10T17:38:00.315Z,5.40
2018-12-10T17:40:29.757Z,5.60
2018-12-10T17:42:59.237Z,5.50
2018-12-10T17:45:28.687Z,5.60
2018-12-10T17:47:58.190Z,5.70
2018-12-10T17:50:27.581Z,5.50
2018-12-10T17:52:57.193Z,5.50
2018-12-10T17:55:26.678Z,5.60
2018-12-10T17:57:56.199Z,5.50
2018-12-10T18:00:25.690Z,5.60
2018-12-10T18:02:55.614Z,5.50
2018-12-10T18:05:25.128Z,5.50
2018-12-10T18:07:54.642Z,5.50
2018-12-10T18:10:24.329Z,5.50
2018-12-10T18:12:53.802Z,5.50
2018-12-10T18:15:23.346Z,5.40
2018-12-10T18:17:52.892Z,5.30
2018-12-10T18:20:23.338Z,5.30
2018-12-10T18:22:52.962Z,5.30
2018-12-10T18:25:22.770Z,5.30
2018-12-10T18:27:52.533Z,5.20
2018-12-10T18:30:22.259Z,5.20
2018-12-10T18:32:52.064Z,5.20
2018-12-10T18:35:21.692Z,5.20
2018-12-10T18:37:51.224Z,5.20
2018-12-10T18:40:20.692Z,5.20
2018-12-10T18:42:50.392Z,5.20
2018-12-10T18:45:20.247Z,5.20
2018-12-10T18:47:49.902Z,5.10
2018-12-10T18:50:19.497Z,5.10
2018-12-10T18:52:49.265Z,5.20
2018-12-10T18:55:18.798Z,5.10
2018-12-10T18:57:48.384Z,5.20
2018-12-10T19:00:18.053Z,5.20
2018-12-10T19:02:47.657Z,5.20
2018-12-10T19:05:18.124Z,5.10
2018-12-10T19:07:47.968Z,5.10
2018-12-10T19:10:17.576Z,5.10
2018-12-10T19:12:47.356Z,5.10
2018-12-10T19:15:16.932Z,5.10
2018-12-10T19:17:46.497Z,5.10
2018-12-10T19:20:16.103Z,5.00
2018-12-10T19:22:45.671Z,5.00
2018-12-10T19:25:21.877Z,5.00
2018-12-10T19:27:51.411Z,5.10
2018-12-10T19:30:20.943Z,5.10
2018-12-10T19:32:50.494Z,5.10
2018-12-10T19:35:20.105Z,5.10
2018-12-10T19:37:49.624Z,5.10
2018-12-10T19:40:19.469Z,5.10
2018-12-10T19:42:49.095Z,5.20
2018-12-10T19:45:18.587Z,5.20
2018-12-10T19:47:48.233Z,5.10
2018-12-10T19:50:17.909Z,5.10
2018-12-10T19:52:47.539Z,5.10
2018-12-10T19:55:17.560Z,5.10
2018-12-10T19:57:47.258Z,5.10
2018-12-10T20:00:17.055Z,5.10
2018-12-10T20:02:46.574Z,5.00
2018-12-10T20:05:16.102Z,5.00
2018-12-10T20:07:45.866Z,5.10
2018-12-10T20:10:15.370Z,5.00
2018-12-10T20:12:44.948Z,5.00
2018-12-10T20:15:14.516Z,4.90
2018-12-10T20:17:44.021Z,5.00
2018-12-10T20:20:13.594Z,5.10
2018-12-10T20:22:43.398Z,5.00
2018-12-10T20:25:13.929Z,5.10
2018-12-10T20:27:43.910Z,5.00
2018-12-10T20:30:13.845Z,4.90
2018-12-10T20:32:43.928Z,5.00
2018-12-10T20:35:13.781Z,5.00
2018-12-10T20:37:43.603Z,4.90
2018-12-10T20:40:13.544Z,4.90
2018-12-10T20:42:43.136Z,4.90
2018-12-10T20:45:12.813Z,4.90
2018-12-10T20:47:42.591Z,4.90
2018-12-10T20:50:12.702Z,4.90
2018-12-10T20:52:42.335Z,4.90
2018-12-10T20:55:11.876Z,4.90
2018-12-10T20:57:41.857Z,4.90
2018-12-10T21:00:11.775Z,4.90
2018-12-10T21:02:41.272Z,4.90
2018-12-10T21:05:11.272Z,4.90
2018-12-10T21:07:40.829Z,4.90
2018-12-10T21:10:10.485Z,4.90
2018-12-10T21:12:40.309Z,4.90
2018-12-10T21:15:10.030Z,4.90
2018-12-10T21:17:39.578Z,4.90
2018-12-10T21:20:09.412Z,4.80
2018-12-10T21:22:38.922Z,4.80
2018-12-10T21:25:08.979Z,4.70
2018-12-10T21:27:38.528Z,4.80
2018-12-10T21:30:08.991Z,4.70
2018-12-10T21:32:38.658Z,4.80
2018-12-10T21:35:08.312Z,4.80
2018-12-10T21:37:37.812Z,4.80
2018-12-10T21:40:07.482Z,4.80
2018-12-10T21:42:38.954Z,4.70
2018-12-10T21:45:09.422Z,4.70
2018-12-10T21:47:39.823Z,4.70
2018-12-10T21:50:09.487Z,4.80
2018-12-10T21:52:39.251Z,4.80
2018-12-10T21:55:08.968Z,4.80
2018-12-10T21:57:38.490Z,4.80
2018-12-10T22:00:08.355Z,4.80
2018-12-10T22:02:37.888Z,4.80
2018-12-10T22:05:07.781Z,4.80
2018-12-10T22:07:37.500Z,4.80
2018-12-10T22:10:07.631Z,4.70
2018-12-10T22:12:38.881Z,4.80
2018-12-10T22:15:08.618Z,4.80
2018-12-10T22:17:38.303Z,4.70
2018-12-10T22:20:08.014Z,4.70
2018-12-10T22:22:37.457Z,4.60
2018-12-10T22:25:11.959Z,4.70
2018-12-10T22:27:41.622Z,4.70
2018-12-10T22:30:11.871Z,4.60
2018-12-10T22:32:42.036Z,4.70
2018-12-10T22:35:11.938Z,4.80
2018-12-10T22:37:43.172Z,4.70
2018-12-10T22:40:12.698Z,4.80
2018-12-10T22:42:44.159Z,4.70
2018-12-10T22:45:13.674Z,4.70
2018-12-10T22:47:43.222Z,4.70
2018-12-10T22:50:14.504Z,4.70
2018-12-10T22:52:44.113Z,4.70
2018-12-10T22:55:14.074Z,4.70
2018-12-10T22:57:43.579Z,4.70
2018-12-10T23:00:14.396Z,4.80
2018-12-10T23:02:44.103Z,4.80
2018-12-10T23:05:14.231Z,4.80
2018-12-10T23:07:43.711Z,4.80
2018-12-10T23:10:13.216Z,4.90
2018-12-10T23:12:43.154Z,4.90
2018-12-10T23:15:12.670Z,4.80
2018-12-10T23:17:42.157Z,4.80
2018-12-10T23:20:12.395Z,4.80
2018-12-10T23:22:41.876Z,4.80
2018-12-10T23:25:11.414Z,4.80
2018-12-10T23:27:41.140Z,4.80
2018-12-10T23:30:10.884Z,4.80
2018-12-10T23:32:40.338Z,4.80
2018-12-10T23:35:10.086Z,4.80
2018-12-10T23:37:39.577Z,4.90
2018-12-10T23:40:09.364Z,4.90
2018-12-10T23:45:29.688Z,4.90
2018-12-10T23:47:59.151Z,5.00
2018-12-10T23:50:28.674Z,4.90
2018-12-10T23:52:58.264Z,4.90
2018-12-10T23:55:27.728Z,4.90
2018-12-10T23:57:57.302Z,5.00
